Terminal Aerodrome Forecast
Issued by NWS Omaha/Valley, NE

Home | Current Version | Previous Version | Text Only | Print | Product List | Glossary Off
Versions: 1 2 3 4 5 6 7 8 9 10 11 12 13 14 15 16 17 18 19 20 21 22 23 24 25 26 27 28 29 30 31 32 33 34 35 36 37 38 39 40 41 42 43

000
FTUS43 KOAX 180520
TAFOFK
TAF
KOFK 180520Z 1806/1906 13005KT P6SM SCT015 OVC035
      TEMPO 1807/1809 4SM -SN
     FM180900 12005KT 4SM -SN BR OVC020
      TEMPO 1809/1813 1 1/2SM -SN BR OVC009
     FM181500 16005KT 3SM BR OVC015
     FM181900 19006KT P6SM OVC015=

USA.gov is the U.S. government's official web portal to all federal, state and local government web resources and services.